createdAt,value
2023-06-24T00:03:54.997Z,27.08
2023-06-24T00:08:50.042Z,26.97
2023-06-24T00:13:43.491Z,26.88
2023-06-24T00:18:37.192Z,26.84
2023-06-24T00:23:35.264Z,26.84
2023-06-24T00:28:29.951Z,26.76
2023-06-24T00:33:23.112Z,26.77
2023-06-24T00:38:17.396Z,26.67
2023-06-24T00:43:11.180Z,26.64
2023-06-24T00:48:06.309Z,26.58
2023-06-24T00:53:00.004Z,26.54
2023-06-24T00:57:55.444Z,26.51
2023-06-24T01:02:50.351Z,26.46
2023-06-24T01:07:45.721Z,26.31
2023-06-24T01:12:42.578Z,26.30
2023-06-24T01:17:40.094Z,26.39
2023-06-24T01:23:00.585Z,26.31
2023-06-24T01:28:09.419Z,26.29
2023-06-24T01:33:09.973Z,26.19
2023-06-24T01:38:09.818Z,26.15
2023-06-24T01:43:05.728Z,26.12
2023-06-24T01:48:03.198Z,26.09
2023-06-24T01:52:59.551Z,25.80
2023-06-24T01:57:54.399Z,26.15
2023-06-24T02:02:49.166Z,26.05
2023-06-24T02:07:44.573Z,26.06
2023-06-24T02:12:40.973Z,26.05
2023-06-24T02:17:34.137Z,26.05
2023-06-24T02:22:27.789Z,25.63
2023-06-24T02:27:21.692Z,26.02
2023-06-24T02:32:16.858Z,26.12
2023-06-24T02:37:10.095Z,26.14
2023-06-24T02:42:03.309Z,26.05
2023-06-24T02:46:58.053Z,26.09
2023-06-24T02:51:52.903Z,25.96
2023-06-24T02:56:46.660Z,25.92
2023-06-24T03:01:48.116Z,25.66
2023-06-24T03:06:42.814Z,25.64
2023-06-24T03:11:44.200Z,25.50
2023-06-24T03:16:40.848Z,25.27
2023-06-24T03:21:40.489Z,25.26
2023-06-24T03:26:39.383Z,25.18
2023-06-24T03:31:36.109Z,25.17
2023-06-24T03:36:30.181Z,25.15
2023-06-24T03:41:23.578Z,25.17
2023-06-24T03:46:16.958Z,24.93
2023-06-24T03:51:11.601Z,25.31
2023-06-24T03:56:05.874Z,25.40
2023-06-24T04:01:01.370Z,25.34
2023-06-24T04:05:56.189Z,25.52
2023-06-24T04:10:50.888Z,25.58
2023-06-24T04:15:44.138Z,25.60
2023-06-24T04:20:39.981Z,25.77
2023-06-24T04:25:33.418Z,25.98
2023-06-24T04:30:28.438Z,26.12
2023-06-24T04:35:21.755Z,26.14
2023-06-24T04:40:15.241Z,26.21
2023-06-24T04:45:09.383Z,26.30
2023-06-24T04:50:04.129Z,26.45
2023-06-24T04:54:57.569Z,26.45
2023-06-24T04:59:50.801Z,26.59
2023-06-24T05:04:44.151Z,26.71
2023-06-24T05:09:39.091Z,26.84
2023-06-24T05:14:33.978Z,26.81
2023-06-24T05:19:27.181Z,26.77
2023-06-24T05:24:20.491Z,27.31
2023-06-24T05:29:15.144Z,27.59
2023-06-24T05:34:08.846Z,27.76
2023-06-24T05:39:02.151Z,28.01
2023-06-24T05:44:06.642Z,28.29
2023-06-24T05:49:01.470Z,28.48
2023-06-24T05:53:54.759Z,28.73
2023-06-24T05:58:47.960Z,28.72
2023-06-24T06:03:41.164Z,29.02
2023-06-24T06:08:35.918Z,29.08
2023-06-24T06:13:29.071Z,29.29
2023-06-24T06:18:22.200Z,29.54
2023-06-24T06:23:15.393Z,29.77
2023-06-24T06:28:09.967Z,29.96
2023-06-24T06:33:03.331Z,30.13
2023-06-24T06:37:57.305Z,30.24
2023-06-24T06:42:51.217Z,30.39
2023-06-24T06:47:45.834Z,30.48
2023-06-24T06:52:39.590Z,30.53
2023-06-24T06:57:33.025Z,30.62
2023-06-24T07:02:26.338Z,30.71
2023-06-24T07:07:21.085Z,31.01
2023-06-24T07:12:15.661Z,31.23
2023-06-24T07:17:10.039Z,31.53
2023-06-24T07:22:03.312Z,31.71
2023-06-24T07:26:57.988Z,31.79
2023-06-24T07:31:51.161Z,31.86
2023-06-24T07:36:44.315Z,32.06
2023-06-24T07:41:37.565Z,32.11
2023-06-24T07:46:32.610Z,32.43
2023-06-24T07:51:27.688Z,32.60
2023-06-24T07:56:20.938Z,32.98
2023-06-24T08:01:14.102Z,33.23
2023-06-24T08:06:08.819Z,33.87
2023-06-24T08:11:02.014Z,34.24
2023-06-24T08:15:55.268Z,34.44
2023-06-24T08:20:49.647Z,35.61
2023-06-24T08:25:44.770Z,36.23
2023-06-24T08:30:38.049Z,36.70
2023-06-24T08:35:31.294Z,37.17
2023-06-24T08:40:24.418Z,37.43
2023-06-24T08:45:19.133Z,37.71
2023-06-24T08:50:14.783Z,37.90
2023-06-24T08:55:11.299Z,38.25
2023-06-24T09:00:05.657Z,38.33
2023-06-24T09:05:00.307Z,38.10
2023-06-24T09:09:53.457Z,38.49
2023-06-24T09:14:50.881Z,38.51
2023-06-24T09:19:44.124Z,38.73
2023-06-24T09:24:39.597Z,38.88
2023-06-24T09:29:35.672Z,39.05
2023-06-24T09:34:30.750Z,39.05
2023-06-24T09:39:30.598Z,38.86
2023-06-24T09:44:26.252Z,39.17
2023-06-24T09:49:19.682Z,39.27
2023-06-24T09:54:14.816Z,39.35
2023-06-24T09:59:08.949Z,39.27
2023-06-24T10:04:04.788Z,39.48
2023-06-24T10:08:59.916Z,39.60
2023-06-24T10:13:53.544Z,39.77
2023-06-24T10:18:47.563Z,40.07
2023-06-24T10:23:53.837Z,40.30
2023-06-24T10:29:15.334Z,40.60
2023-06-24T10:34:25.027Z,40.69
2023-06-24T10:39:53.490Z,41.01
2023-06-24T10:44:51.854Z,41.09
2023-06-24T10:49:45.232Z,41.10
2023-06-24T10:54:39.787Z,40.79
2023-06-24T10:59:36.692Z,41.19
2023-06-24T11:04:31.373Z,41.31
2023-06-24T11:09:24.632Z,41.66
2023-06-24T11:14:18.302Z,41.88
2023-06-24T11:19:11.603Z,41.93
2023-06-24T11:24:07.686Z,42.42
2023-06-24T11:29:00.877Z,42.80
2023-06-24T11:33:54.436Z,43.19
2023-06-24T11:38:48.232Z,43.51
2023-06-24T11:43:47.257Z,43.67
2023-06-24T11:48:42.413Z,43.97
2023-06-24T11:53:44.389Z,44.21
2023-06-24T11:58:37.974Z,44.32
2023-06-24T12:03:33.958Z,44.42
2023-06-24T12:08:29.070Z,44.25
2023-06-24T12:13:24.391Z,44.20
2023-06-24T12:18:17.532Z,44.32
2023-06-24T12:23:12.125Z,44.16
2023-06-24T12:28:05.615Z,43.75
2023-06-24T12:32:59.109Z,43.69
2023-06-24T12:37:52.400Z,44.04
2023-06-24T12:42:47.018Z,44.47
2023-06-24T12:47:40.164Z,44.74
2023-06-24T12:52:33.309Z,44.88
2023-06-24T12:57:26.581Z,44.65
2023-06-24T13:02:21.114Z,44.25
2023-06-24T13:07:16.691Z,44.56
2023-06-24T13:12:10.831Z,44.74
2023-06-24T13:17:04.118Z,45.27
2023-06-24T13:21:58.745Z,45.35
2023-06-24T13:26:52.017Z,45.35
2023-06-24T13:31:45.249Z,45.22
2023-06-24T13:36:40.190Z,45.30
2023-06-24T13:41:35.415Z,45.36
2023-06-24T13:46:29.526Z,45.20
2023-06-24T13:51:23.113Z,44.91
2023-06-24T13:56:16.393Z,44.74
2023-06-24T14:01:10.955Z,44.38
2023-06-24T14:06:04.870Z,44.30
2023-06-24T14:10:58.161Z,43.59
2023-06-24T14:15:51.365Z,42.29
2023-06-24T14:20:46.073Z,41.20
2023-06-24T14:25:39.573Z,40.33
2023-06-24T14:30:32.787Z,39.68
2023-06-24T14:35:26.114Z,39.14
2023-06-24T14:40:20.722Z,38.51
2023-06-24T14:45:13.830Z,37.92
2023-06-24T14:50:07.923Z,38.34
2023-06-24T14:55:01.136Z,37.97
2023-06-24T14:59:55.778Z,37.82
2023-06-24T15:04:50.039Z,37.61
2023-06-24T15:09:44.454Z,37.30
2023-06-24T15:14:37.686Z,37.20
2023-06-24T15:19:32.462Z,37.04
2023-06-24T15:24:25.745Z,37.01
2023-06-24T15:29:19.093Z,37.00
2023-06-24T15:34:13.106Z,36.91
2023-06-24T15:39:07.837Z,36.80
2023-06-24T15:44:00.999Z,36.63
2023-06-24T15:48:54.227Z,36.53
2023-06-24T15:53:47.816Z,36.38
2023-06-24T15:58:42.603Z,36.32
2023-06-24T16:03:36.181Z,36.10
2023-06-24T16:08:29.589Z,36.12
2023-06-24T16:13:23.065Z,35.94
2023-06-24T16:18:17.679Z,35.88
2023-06-24T16:23:11.791Z,35.80
2023-06-24T16:28:06.398Z,35.67
2023-06-24T16:32:59.614Z,35.51
2023-06-24T16:37:54.216Z,35.47
2023-06-24T16:42:47.732Z,35.33
2023-06-24T16:47:41.038Z,35.29
2023-06-24T16:52:34.855Z,35.16
2023-06-24T16:57:29.629Z,34.91
2023-06-24T17:02:22.987Z,34.94
2023-06-24T17:07:16.283Z,34.52
2023-06-24T17:12:10.123Z,34.68
2023-06-24T17:17:04.894Z,34.64
2023-06-24T17:21:58.036Z,34.47
2023-06-24T17:26:51.258Z,34.41
2023-06-24T17:31:44.818Z,34.30
2023-06-24T17:36:39.366Z,34.12
2023-06-24T17:41:35.072Z,34.04
2023-06-24T17:46:28.340Z,33.95
2023-06-24T17:51:21.613Z,33.75
2023-06-24T17:56:16.217Z,33.70
2023-06-24T18:01:15.676Z,33.46
2023-06-24T18:06:08.871Z,33.50
2023-06-24T18:11:02.286Z,33.39
2023-06-24T18:15:57.240Z,33.27
2023-06-24T18:20:50.434Z,32.85
2023-06-24T18:25:43.626Z,33.21
2023-06-24T18:30:37.100Z,32.08
2023-06-24T18:35:31.933Z,32.85
2023-06-24T18:40:25.066Z,32.64
2023-06-24T18:45:18.704Z,32.40
2023-06-24T18:50:12.393Z,31.87
2023-06-24T18:55:07.642Z,31.97
2023-06-24T19:00:00.814Z,31.68
2023-06-24T19:04:54.117Z,31.39
2023-06-24T19:09:47.215Z,31.21
2023-06-24T19:14:42.622Z,31.10
2023-06-24T19:19:35.870Z,31.12
2023-06-24T19:24:29.018Z,30.93
2023-06-24T19:29:22.350Z,30.83
2023-06-24T19:34:18.497Z,30.57
2023-06-24T19:39:11.799Z,30.54
2023-06-24T19:44:06.961Z,30.43
2023-06-24T19:49:00.182Z,30.16
2023-06-24T19:53:54.834Z,30.01
2023-06-24T19:58:48.015Z,29.82
2023-06-24T20:03:41.328Z,29.82
2023-06-24T20:08:34.688Z,29.65
2023-06-24T20:13:29.503Z,29.56
2023-06-24T20:18:24.745Z,29.40
2023-06-24T20:23:18.127Z,29.16
2023-06-24T20:28:11.565Z,29.33
2023-06-24T20:33:06.276Z,29.24
2023-06-24T20:37:59.550Z,29.14
2023-06-24T20:42:52.884Z,28.99
2023-06-24T20:47:46.290Z,28.87
2023-06-24T20:52:41.009Z,28.70
2023-06-24T20:57:34.758Z,28.59
2023-06-24T21:02:28.210Z,28.46
2023-06-24T21:07:21.549Z,28.55
2023-06-24T21:12:16.313Z,28.48
2023-06-24T21:17:09.615Z,28.32
2023-06-24T21:22:03.234Z,28.26
2023-06-24T21:26:56.503Z,27.97
2023-06-24T21:31:51.148Z,28.03
2023-06-24T21:36:44.365Z,28.06
2023-06-24T21:41:37.621Z,27.92
2023-06-24T21:46:30.873Z,27.79
2023-06-24T21:51:25.589Z,27.70
2023-06-24T21:56:18.945Z,27.61
2023-06-24T22:01:12.263Z,27.49
2023-06-24T22:06:05.765Z,27.39
2023-06-24T22:11:00.447Z,27.26
2023-06-24T22:15:53.640Z,27.15
2023-06-24T22:20:46.798Z,27.11
2023-06-24T22:25:40.178Z,27.04
2023-06-24T22:30:35.212Z,26.41
2023-06-24T22:35:28.699Z,26.78
2023-06-24T22:40:21.966Z,26.84
2023-06-24T22:45:15.109Z,26.81
2023-06-24T22:50:10.576Z,26.56
2023-06-24T22:55:03.823Z,26.75
2023-06-24T22:59:57.119Z,26.79
2023-06-24T23:04:50.861Z,26.83
2023-06-24T23:09:45.985Z,26.89
2023-06-24T23:14:39.938Z,26.62
2023-06-24T23:19:34.162Z,26.95
2023-06-24T23:24:30.389Z,27.06
2023-06-24T23:29:27.871Z,27.10
2023-06-24T23:34:21.541Z,27.19
2023-06-24T23:39:15.465Z,27.17
2023-06-24T23:44:09.369Z,26.73
2023-06-24T23:49:04.086Z,27.15
2023-06-24T23:53:57.346Z,27.20
2023-06-24T23:58:50.547Z,27.28
